Time;durP1;ratioP1;P1;durP2;ratioP2;P2;SDS_P1;SDS_P2;PMS_P1;PMS_P2;Temp;Humidity;BMP_temperature;BMP_pressure;BME280_temperature;BME280_humidity;BME280_pressure;Samples;Min_cycle;Max_cycle;Signal;HPM_P1;HPM_P2
2023/05/14 00:00:21;;;;;;;13.95;8.70;;;;;;;;;;5006924;28;20049;-69
2023/05/14 00:02:48;;;;;;;10.55;7.65;;;;;;;;;;5007686;28;20144;-67
2023/05/14 00:05:15;;;;;;;11.85;7.78;;;;;;;;;;5007335;28;20029;-67
2023/05/14 00:07:42;;;;;;;13.20;8.07;;;;;;;;;;5008362;28;20042;-68
2023/05/14 00:10:08;;;;;;;13.77;8.25;;;;;;;;;;5006023;28;20050;-68
2023/05/14 00:12:35;;;;;;;16.10;8.65;;;;;;;;;;5007975;28;20048;-68
2023/05/14 00:15:02;;;;;;;12.00;7.90;;;;;;;;;;5006011;28;20045;-70
2023/05/14 00:17:29;;;;;;;10.70;6.90;;;;;;;;;;5009010;28;20038;-67
2023/05/14 00:19:55;;;;;;;11.40;7.53;;;;;;;;;;5012386;28;20175;-69
2023/05/14 00:22:22;;;;;;;11.43;7.82;;;;;;;;;;5011030;28;20050;-68
2023/05/14 00:24:49;;;;;;;11.27;7.63;;;;;;;;;;5009040;28;20519;-68
2023/05/14 00:27:38;;;;;;;10.60;7.50;;;;;;;;;;4965445;28;20544;-67
2023/05/14 00:30:05;;;;;;;12.30;7.55;;;;;;;;;;4964243;28;20042;-66
2023/05/14 00:32:32;;;;;;;10.93;7.20;;;;;;;;;;4961282;28;20105;-65
2023/05/14 00:34:59;;;;;;;10.60;7.15;;;;;;;;;;4964494;28;21042;-67
2023/05/14 00:37:25;;;;;;;13.98;7.43;;;;;;;;;;4956775;28;20047;-67
2023/05/14 00:39:52;;;;;;;11.30;7.43;;;;;;;;;;4959709;28;20405;-64
2023/05/14 00:42:19;;;;;;;11.02;7.22;;;;;;;;;;4958698;28;20154;-67
2023/05/14 00:44:45;;;;;;;10.32;6.88;;;;;;;;;;4959105;28;20378;-67
2023/05/14 00:47:12;;;;;;;10.45;7.10;;;;;;;;;;4957923;28;20051;-66
2023/05/14 00:49:40;;;;;;;12.25;7.22;;;;;;;;;;4957979;28;20042;-67
2023/05/14 00:52:07;;;;;;;11.07;6.70;;;;;;;;;;4957338;28;20613;-67
2023/05/14 00:54:35;;;;;;;10.00;6.60;;;;;;;;;;4958015;28;20102;-68
2023/05/14 00:57:02;;;;;;;10.80;6.63;;;;;;;;;;4940362;28;20053;-67
2023/05/14 00:59:28;;;;;;;11.73;6.68;;;;;;;;;;4981796;28;20050;-68
2023/05/14 01:01:55;;;;;;;12.88;7.05;;;;;;;;;;4986092;28;20046;-67
2023/05/14 01:04:22;;;;;;;10.50;7.18;;;;;;;;;;4986156;28;20138;-68
2023/05/14 01:07:07;;;;;;;10.38;6.18;;;;;;;;;;4998777;28;20050;-67
2023/05/14 01:09:36;;;;;;;9.95;5.90;;;;;;;;;;4989540;28;20080;-67
2023/05/14 01:12:06;;;;;;;8.95;5.07;;;;;;;;;;5009600;28;20408;-67
2023/05/14 01:14:33;;;;;;;9.30;6.03;;;;;;;;;;4988987;28;20043;-67
2023/05/14 01:17:01;;;;;;;9.52;5.80;;;;;;;;;;4997804;28;20276;-70
2023/05/14 01:19:27;;;;;;;9.27;5.07;;;;;;;;;;5000047;28;20104;-66
2023/05/14 01:21:54;;;;;;;11.77;4.47;;;;;;;;;;4999095;28;20074;-66
2023/05/14 01:24:21;;;;;;;5.65;3.42;;;;;;;;;;4988689;28;20153;-66
2023/05/14 01:26:47;;;;;;;7.38;3.28;;;;;;;;;;4988394;28;20042;-66
2023/05/14 01:29:19;;;;;;;6.75;3.38;;;;;;;;;;4990828;28;20077;-66
2023/05/14 01:31:47;;;;;;;7.32;3.40;;;;;;;;;;4987534;28;20042;-66
2023/05/14 01:34:14;;;;;;;6.25;3.22;;;;;;;;;;4987271;28;20437;-67
2023/05/14 01:36:42;;;;;;;5.43;3.08;;;;;;;;;;4989596;28;20048;-67
2023/05/14 01:39:08;;;;;;;6.97;2.72;;;;;;;;;;4990655;28;20038;-66
2023/05/14 01:41:38;;;;;;;5.97;2.90;;;;;;;;;;4989433;28;20041;-65
2023/05/14 01:44:05;;;;;;;8.73;3.35;;;;;;;;;;4990535;28;20161;-66
2023/05/14 01:46:32;;;;;;;14.50;3.30;;;;;;;;;;4999285;28;20049;-67
2023/05/14 01:48:59;;;;;;;5.55;2.42;;;;;;;;;;5009988;28;20073;-67
2023/05/14 01:51:26;;;;;;;6.03;2.80;;;;;;;;;;4998414;28;20411;-67
2023/05/14 01:53:52;;;;;;;5.85;2.80;;;;;;;;;;5009067;28;20045;-67
2023/05/14 01:56:22;;;;;;;7.30;2.75;;;;;;;;;;5000748;28;20133;-67
2023/05/14 01:58:49;;;;;;;5.95;3.03;;;;;;;;;;5007974;28;20033;-67
2023/05/14 02:01:16;;;;;;;6.60;2.80;;;;;;;;;;5000343;28;20042;-68
2023/05/14 02:03:43;;;;;;;5.30;2.85;;;;;;;;;;4995012;28;20136;-68
2023/05/14 02:06:09;;;;;;;6.70;3.10;;;;;;;;;;5008493;28;20119;-68
2023/05/14 02:08:36;;;;;;;6.10;2.92;;;;;;;;;;5008740;28;20041;-65
2023/05/14 02:11:03;;;;;;;5.40;2.78;;;;;;;;;;5008411;28;20033;-68
2023/05/14 02:13:29;;;;;;;6.00;2.97;;;;;;;;;;5008153;28;20042;-68
2023/05/14 02:15:56;;;;;;;6.43;2.92;;;;;;;;;;5006716;28;20125;-67
2023/05/14 02:18:23;;;;;;;4.80;2.45;;;;;;;;;;5007260;28;20045;-68
2023/05/14 02:20:49;;;;;;;10.80;3.25;;;;;;;;;;4996305;28;20117;-67
2023/05/14 02:23:36;;;;;;;6.30;2.95;;;;;;;;;;4992760;28;20069;-66
2023/05/14 02:26:03;;;;;;;6.45;2.55;;;;;;;;;;4994922;28;20128;-68
2023/05/14 02:28:29;;;;;;;6.57;2.45;;;;;;;;;;4994702;28;20038;-66
2023/05/14 02:31:00;;;;;;;5.47;2.50;;;;;;;;;;4993786;28;20038;-67
2023/05/14 02:33:27;;;;;;;5.18;2.40;;;;;;;;;;4993513;28;20563;-68
2023/05/14 02:35:53;;;;;;;6.60;2.90;;;;;;;;;;4994463;28;20500;-68
2023/05/14 02:38:20;;;;;;;5.55;2.38;;;;;;;;;;4994950;28;20120;-67
2023/05/14 02:40:47;;;;;;;8.77;3.00;;;;;;;;;;4993566;28;20042;-66
2023/05/14 02:43:13;;;;;;;8.20;2.92;;;;;;;;;;4994694;28;20046;-65
2023/05/14 02:45:40;;;;;;;8.38;2.20;;;;;;;;;;4993091;28;20041;-66
2023/05/14 02:48:07;;;;;;;9.77;2.60;;;;;;;;;;4994501;28;20140;-66
2023/05/14 02:50:33;;;;;;;5.25;2.65;;;;;;;;;;4994891;28;20066;-66
2023/05/14 02:53:00;;;;;;;4.95;2.20;;;;;;;;;;4995882;28;20073;-67
2023/05/14 02:55:27;;;;;;;10.10;2.50;;;;;;;;;;5004731;28;20100;-65
2023/05/14 02:57:54;;;;;;;7.18;3.35;;;;;;;;;;5008831;28;20033;-65
2023/05/14 03:00:20;;;;;;;5.32;2.60;;;;;;;;;;5008151;28;20156;-66
2023/05/14 03:02:47;;;;;;;4.78;1.85;;;;;;;;;;5006682;28;20075;-65
2023/05/14 03:05:14;;;;;;;7.07;2.42;;;;;;;;;;5006702;28;20091;-64
2023/05/14 03:07:40;;;;;;;7.07;3.00;;;;;;;;;;5008399;28;20076;-66
2023/05/14 03:10:07;;;;;;;6.28;2.53;;;;;;;;;;5008880;28;20415;-66
2023/05/14 03:12:34;;;;;;;5.40;2.47;;;;;;;;;;4998092;28;20476;-67
2023/05/14 03:15:00;;;;;;;6.90;2.25;;;;;;;;;;5005567;28;20515;-67
2023/05/14 03:17:27;;;;;;;4.32;2.17;;;;;;;;;;5006980;28;20038;-66
2023/05/14 03:19:54;;;;;;;6.78;2.47;;;;;;;;;;5005758;28;20049;-67
2023/05/14 03:22:20;;;;;;;5.90;3.75;;;;;;;;;;4993496;28;20046;-71
2023/05/14 03:24:47;;;;;;;8.55;3.00;;;;;;;;;;5003988;28;20716;-66
2023/05/14 03:27:14;;;;;;;6.60;2.50;;;;;;;;;;5008354;28;20046;-67
2023/05/14 03:29:40;;;;;;;6.53;3.00;;;;;;;;;;5008332;28;20152;-65
2023/05/14 03:32:08;;;;;;;5.93;2.80;;;;;;;;;;5000022;28;21132;-64
2023/05/14 03:34:35;;;;;;;7.70;2.75;;;;;;;;;;4973231;28;20042;-66
2023/05/14 03:37:21;;;;;;;9.63;2.92;;;;;;;;;;4972323;28;20038;-67
2023/05/14 03:40:09;;;;;;;9.68;3.08;;;;;;;;;;4951379;28;20049;-66
2023/05/14 03:42:36;;;;;;;7.93;3.00;;;;;;;;;;4905055;28;20044;-67
2023/05/14 03:45:23;;;;;;;7.38;2.83;;;;;;;;;;4882354;29;20043;-65
2023/05/14 03:47:50;;;;;;;6.97;2.88;;;;;;;;;;4890094;29;20048;-66
2023/05/14 03:50:16;;;;;;;5.90;2.70;;;;;;;;;;4891502;29;20086;-66
2023/05/14 03:52:44;;;;;;;10.23;2.97;;;;;;;;;;4894836;29;20051;-66
2023/05/14 03:55:11;;;;;;;5.57;2.95;;;;;;;;;;4908825;29;20040;-69
2023/05/14 03:57:39;;;;;;;8.63;3.28;;;;;;;;;;4883892;29;20494;-66
2023/05/14 04:00:06;;;;;;;14.82;3.47;;;;;;;;;;4906668;29;20062;-66
2023/05/14 04:02:33;;;;;;;8.52;3.08;;;;;;;;;;4892520;29;20051;-66
2023/05/14 04:04:59;;;;;;;7.38;2.83;;;;;;;;;;4905494;29;20051;-65
2023/05/14 04:07:26;;;;;;;5.80;3.13;;;;;;;;;;4911752;28;20043;-65
2023/05/14 04:09:52;;;;;;;6.65;2.70;;;;;;;;;;4956388;28;20481;-66
2023/05/14 04:12:19;;;;;;;6.18;3.40;;;;;;;;;;4955353;28;20089;-66
2023/05/14 04:14:46;;;;;;;6.18;2.85;;;;;;;;;;4954940;28;20480;-64
2023/05/14 04:17:12;;;;;;;5.70;3.13;;;;;;;;;;4955205;28;20043;-66
2023/05/14 04:19:39;;;;;;;9.10;3.10;;;;;;;;;;4967423;28;20049;-69
2023/05/14 04:22:05;;;;;;;5.95;3.22;;;;;;;;;;4996189;28;20145;-67
2023/05/14 04:24:32;;;;;;;7.60;3.58;;;;;;;;;;5004336;28;20091;-66
2023/05/14 04:26:59;;;;;;;7.00;3.50;;;;;;;;;;5003992;28;20034;-65
2023/05/14 04:29:26;;;;;;;7.15;3.63;;;;;;;;;;5003458;28;20121;-64
2023/05/14 04:31:53;;;;;;;7.38;3.40;;;;;;;;;;5006281;28;20045;-63
2023/05/14 04:34:19;;;;;;;15.07;3.72;;;;;;;;;;5006903;28;20049;-64
2023/05/14 04:36:46;;;;;;;11.07;3.78;;;;;;;;;;5006144;28;20041;-63
2023/05/14 04:39:13;;;;;;;13.77;3.80;;;;;;;;;;5008663;28;20041;-63
2023/05/14 04:41:41;;;;;;;7.60;3.58;;;;;;;;;;5009388;28;20049;-63
2023/05/14 04:44:08;;;;;;;9.43;3.63;;;;;;;;;;5008479;28;20465;-62
2023/05/14 04:46:34;;;;;;;7.30;3.60;;;;;;;;;;5009294;28;20057;-63
2023/05/14 04:49:01;;;;;;;12.00;4.13;;;;;;;;;;5008896;28;20042;-62
2023/05/14 04:51:27;;;;;;;7.90;3.60;;;;;;;;;;5009187;28;20116;-62
2023/05/14 04:53:54;;;;;;;10.30;3.97;;;;;;;;;;5001289;28;20125;-62
2023/05/14 04:56:21;;;;;;;6.45;3.40;;;;;;;;;;5010478;28;20042;-66
2023/05/14 04:58:47;;;;;;;7.00;3.53;;;;;;;;;;5010885;28;20093;-63
2023/05/14 05:01:14;;;;;;;8.05;3.38;;;;;;;;;;5006449;28;20052;-65
2023/05/14 05:03:41;;;;;;;8.90;4.32;;;;;;;;;;5010167;28;20086;-63
2023/05/14 05:06:07;;;;;;;8.07;3.60;;;;;;;;;;5011641;28;20038;-62
2023/05/14 05:08:34;;;;;;;6.88;3.63;;;;;;;;;;5010439;28;20096;-63
2023/05/14 05:11:01;;;;;;;6.82;3.75;;;;;;;;;;5011840;28;20038;-64
2023/05/14 05:13:27;;;;;;;6.38;3.50;;;;;;;;;;5010530;28;20917;-63
2023/05/14 05:15:54;;;;;;;6.60;3.45;;;;;;;;;;5011231;28;20054;-63
2023/05/14 05:18:21;;;;;;;10.88;3.78;;;;;;;;;;5009337;28;20037;-63
2023/05/14 05:20:47;;;;;;;8.68;3.75;;;;;;;;;;5010759;28;20030;-63
2023/05/14 05:23:14;;;;;;;6.50;3.38;;;;;;;;;;5009156;28;20032;-64
2023/05/14 05:25:41;;;;;;;8.73;3.72;;;;;;;;;;5008386;28;20092;-63
2023/05/14 05:28:07;;;;;;;9.48;4.28;;;;;;;;;;4998379;28;20534;-62
2023/05/14 05:30:34;;;;;;;11.40;3.70;;;;;;;;;;5008404;28;20041;-64
2023/05/14 05:33:01;;;;;;;8.55;4.10;;;;;;;;;;5009758;28;20563;-62
2023/05/14 05:35:27;;;;;;;9.40;4.10;;;;;;;;;;5007560;28;20033;-60
2023/05/14 05:37:54;;;;;;;8.50;3.95;;;;;;;;;;5009351;28;20041;-63
2023/05/14 05:40:21;;;;;;;8.00;4.18;;;;;;;;;;5000400;28;20044;-61
2023/05/14 05:42:47;;;;;;;7.57;4.03;;;;;;;;;;5008111;28;20095;-62
2023/05/14 05:45:14;;;;;;;9.63;4.65;;;;;;;;;;5007715;28;20557;-62
2023/05/14 05:47:41;;;;;;;9.77;4.50;;;;;;;;;;5009294;28;20147;-61
2023/05/14 05:50:08;;;;;;;7.25;4.22;;;;;;;;;;5011543;28;20482;-63
2023/05/14 05:52:35;;;;;;;7.35;4.18;;;;;;;;;;5008511;28;20568;-62
2023/05/14 05:55:02;;;;;;;8.38;4.15;;;;;;;;;;5009756;28;20041;-62
2023/05/14 05:57:29;;;;;;;9.82;3.95;;;;;;;;;;5008357;28;20049;-64
2023/05/14 05:59:55;;;;;;;8.20;4.32;;;;;;;;;;5009346;28;20103;-62
2023/05/14 06:02:23;;;;;;;6.85;3.70;;;;;;;;;;5007606;28;20453;-62
2023/05/14 06:04:51;;;;;;;9.02;4.60;;;;;;;;;;5008821;28;20770;-63
2023/05/14 06:07:18;;;;;;;11.25;4.20;;;;;;;;;;5009339;28;21086;-60
2023/05/14 06:09:45;;;;;;;11.18;4.50;;;;;;;;;;5009446;28;20046;-62
2023/05/14 06:12:11;;;;;;;10.60;4.72;;;;;;;;;;5010079;28;20046;-61
2023/05/14 06:14:38;;;;;;;9.15;4.65;;;;;;;;;;5008535;28;20464;-61
2023/05/14 06:17:04;;;;;;;9.80;4.97;;;;;;;;;;5008398;28;20056;-62
2023/05/14 06:19:31;;;;;;;7.38;4.22;;;;;;;;;;5008558;28;20132;-62
2023/05/14 06:21:58;;;;;;;9.02;4.60;;;;;;;;;;5008566;28;20527;-62
2023/05/14 06:24:24;;;;;;;8.00;4.28;;;;;;;;;;5005826;28;20136;-62
2023/05/14 06:26:51;;;;;;;8.57;4.22;;;;;;;;;;5007986;28;20037;-62
2023/05/14 06:29:18;;;;;;;8.50;4.45;;;;;;;;;;5008144;28;20045;-62
2023/05/14 06:31:45;;;;;;;9.50;4.53;;;;;;;;;;5008465;28;20042;-62
2023/05/14 06:34:12;;;;;;;8.45;4.20;;;;;;;;;;5007229;28;20049;-64
2023/05/14 06:36:39;;;;;;;10.45;4.75;;;;;;;;;;5007953;28;20042;-62
2023/05/14 06:39:05;;;;;;;10.73;4.63;;;;;;;;;;5006838;28;20045;-64
2023/05/14 06:41:32;;;;;;;7.43;4.13;;;;;;;;;;5007476;28;20416;-64
2023/05/14 06:43:59;;;;;;;8.77;4.82;;;;;;;;;;5008904;28;20050;-62
2023/05/14 06:46:25;;;;;;;8.98;4.20;;;;;;;;;;5009904;28;20053;-63
2023/05/14 06:48:52;;;;;;;11.82;4.28;;;;;;;;;;5009636;28;20049;-62
2023/05/14 06:51:18;;;;;;;9.43;4.63;;;;;;;;;;5009111;28;20036;-62
2023/05/14 06:53:47;;;;;;;12.10;4.40;;;;;;;;;;5008290;28;20041;-63
2023/05/14 06:56:14;;;;;;;12.13;4.43;;;;;;;;;;5007938;28;20030;-62
2023/05/14 06:58:40;;;;;;;12.93;4.13;;;;;;;;;;5007216;28;20200;-63
2023/05/14 07:01:07;;;;;;;13.05;4.10;;;;;;;;;;5008902;28;20153;-63
2023/05/14 07:03:34;;;;;;;8.60;4.22;;;;;;;;;;5006751;28;20037;-64
2023/05/14 07:06:01;;;;;;;7.22;3.97;;;;;;;;;;4996699;28;20045;-61
2023/05/14 07:08:28;;;;;;;9.88;4.43;;;;;;;;;;5007829;28;20045;-63
2023/05/14 07:10:56;;;;;;;7.65;4.18;;;;;;;;;;5008564;28;20172;-63
2023/05/14 07:13:23;;;;;;;8.82;3.75;;;;;;;;;;5006195;28;20404;-66
2023/05/14 07:15:50;;;;;;;9.88;3.90;;;;;;;;;;5008074;28;20046;-63
2023/05/14 07:18:16;;;;;;;8.77;4.28;;;;;;;;;;5002681;28;20041;-63
2023/05/14 07:20:43;;;;;;;7.93;4.18;;;;;;;;;;5008727;28;20046;-61
2023/05/14 07:23:10;;;;;;;11.50;3.80;;;;;;;;;;5008840;28;20145;-61
2023/05/14 07:25:36;;;;;;;7.57;4.15;;;;;;;;;;5007322;28;20068;-63
2023/05/14 07:28:03;;;;;;;7.68;3.70;;;;;;;;;;5008094;28;20030;-61
2023/05/14 07:30:29;;;;;;;6.80;3.63;;;;;;;;;;5005755;28;20380;-61
2023/05/14 07:32:56;;;;;;;6.65;3.90;;;;;;;;;;4990183;28;20041;-63
2023/05/14 07:35:23;;;;;;;8.25;3.97;;;;;;;;;;5007055;28;20038;-62
2023/05/14 07:37:49;;;;;;;7.75;3.70;;;;;;;;;;5005037;28;20064;-61
2023/05/14 07:40:16;;;;;;;9.10;4.20;;;;;;;;;;5006906;28;20408;-62
2023/05/14 07:42:43;;;;;;;7.47;3.58;;;;;;;;;;5004675;28;20410;-60
2023/05/14 07:45:09;;;;;;;6.85;3.60;;;;;;;;;;5006603;28;20518;-62
2023/05/14 07:47:39;;;;;;;7.35;3.35;;;;;;;;;;5005206;28;20463;-63
2023/05/14 07:50:06;;;;;;;7.13;3.08;;;;;;;;;;5007163;28;20148;-63
2023/05/14 07:52:33;;;;;;;8.68;3.47;;;;;;;;;;5007172;28;20088;-63
2023/05/14 07:55:00;;;;;;;8.52;4.05;;;;;;;;;;5006188;28;20041;-63
2023/05/14 07:57:27;;;;;;;6.93;3.30;;;;;;;;;;5005288;28;20403;-63
2023/05/14 07:59:53;;;;;;;9.52;3.30;;;;;;;;;;5006334;28;20495;-62
2023/05/14 08:02:20;;;;;;;5.80;2.95;;;;;;;;;;5005844;28;20045;-62
2023/05/14 08:04:47;;;;;;;7.72;3.15;;;;;;;;;;5005719;28;20438;-63
2023/05/14 08:07:13;;;;;;;7.53;3.45;;;;;;;;;;5005665;28;20038;-63
2023/05/14 08:09:40;;;;;;;9.60;3.15;;;;;;;;;;5005399;28;20164;-62
2023/05/14 08:12:07;;;;;;;6.22;3.08;;;;;;;;;;5007575;28;20618;-62
2023/05/14 08:14:34;;;;;;;8.00;3.42;;;;;;;;;;5007039;28;20048;-61
2023/05/14 08:17:00;;;;;;;6.75;3.05;;;;;;;;;;5009644;28;20056;-61
2023/05/14 08:19:27;;;;;;;13.02;3.60;;;;;;;;;;5009586;28;20619;-61
2023/05/14 08:21:54;;;;;;;6.60;3.38;;;;;;;;;;5009856;28;20038;-61
2023/05/14 08:24:20;;;;;;;6.35;3.38;;;;;;;;;;5008908;28;20096;-64
2023/05/14 08:26:47;;;;;;;10.52;3.63;;;;;;;;;;5009957;28;20121;-61
2023/05/14 08:29:13;;;;;;;7.45;3.05;;;;;;;;;;5009946;28;20087;-62
2023/05/14 08:31:40;;;;;;;7.72;3.22;;;;;;;;;;5007334;28;20049;-63
2023/05/14 08:34:07;;;;;;;7.03;3.30;;;;;;;;;;5008732;28;20077;-62
2023/05/14 08:36:33;;;;;;;5.78;3.08;;;;;;;;;;5008401;28;20045;-64
2023/05/14 08:39:00;;;;;;;7.32;3.20;;;;;;;;;;5010014;28;20042;-62
2023/05/14 08:41:27;;;;;;;7.03;3.10;;;;;;;;;;5008937;28;20402;-62
2023/05/14 08:43:53;;;;;;;10.63;3.83;;;;;;;;;;5009442;28;20049;-60
2023/05/14 08:46:22;;;;;;;5.90;3.30;;;;;;;;;;5008948;28;20055;-68
2023/05/14 08:48:54;;;;;;;10.15;3.60;;;;;;;;;;5009719;28;20094;-62
2023/05/14 08:51:20;;;;;;;7.90;3.40;;;;;;;;;;5010691;28;20038;-62
2023/05/14 08:53:47;;;;;;;8.88;3.95;;;;;;;;;;5009357;28;20072;-62
2023/05/14 08:56:16;;;;;;;6.22;3.38;;;;;;;;;;5010789;28;20045;-62
2023/05/14 08:58:42;;;;;;;10.70;3.97;;;;;;;;;;5009610;28;20053;-62
2023/05/14 09:01:09;;;;;;;6.57;3.88;;;;;;;;;;5010325;28;20146;-62
2023/05/14 09:03:36;;;;;;;9.45;3.78;;;;;;;;;;4998882;28;20034;-62
2023/05/14 09:06:04;;;;;;;9.90;3.70;;;;;;;;;;5000820;28;20881;-63
2023/05/14 09:08:32;;;;;;;7.88;3.88;;;;;;;;;;5004634;28;20038;-61
2023/05/14 09:10:58;;;;;;;11.48;4.10;;;;;;;;;;4999222;28;20069;-62
2023/05/14 09:13:25;;;;;;;6.95;3.67;;;;;;;;;;4992087;28;20060;-63
2023/05/14 09:15:52;;;;;;;7.00;3.72;;;;;;;;;;4999004;28;20773;-63
2023/05/14 09:18:19;;;;;;;8.50;4.60;;;;;;;;;;5009382;28;20046;-62
2023/05/14 09:20:46;;;;;;;7.50;3.85;;;;;;;;;;5010327;28;20242;-64
2023/05/14 09:23:13;;;;;;;6.85;3.47;;;;;;;;;;5008985;28;21482;-62
2023/05/14 09:25:40;;;;;;;7.38;3.95;;;;;;;;;;5007056;28;20049;-60
2023/05/14 09:28:08;;;;;;;7.00;3.60;;;;;;;;;;5010618;28;20061;-63
2023/05/14 09:30:54;;;;;;;9.40;3.75;;;;;;;;;;4960708;28;20576;-62
2023/05/14 09:33:27;;;;;;;8.80;3.78;;;;;;;;;;4956945;28;20601;-62
2023/05/14 09:36:00;;;;;;;6.03;3.33;;;;;;;;;;4959600;28;20505;-60
2023/05/14 09:38:30;;;;;;;8.60;4.05;;;;;;;;;;4958757;28;20047;-65
2023/05/14 09:40:57;;;;;;;10.48;4.35;;;;;;;;;;4947349;28;20104;-60
2023/05/14 09:43:23;;;;;;;8.27;4.38;;;;;;;;;;4958896;28;20046;-61
2023/05/14 09:45:50;;;;;;;8.75;4.10;;;;;;;;;;4958909;28;20180;-61
2023/05/14 09:48:17;;;;;;;9.20;3.75;;;;;;;;;;4959483;28;20141;-60
2023/05/14 09:50:44;;;;;;;7.32;3.80;;;;;;;;;;4941736;28;20065;-61
2023/05/14 09:53:12;;;;;;;6.88;4.00;;;;;;;;;;4940792;28;20097;-61
2023/05/14 09:55:39;;;;;;;8.40;3.80;;;;;;;;;;4957652;28;20050;-63
2023/05/14 09:58:06;;;;;;;8.10;3.90;;;;;;;;;;4957810;28;21761;-62
2023/05/14 10:00:33;;;;;;;11.95;4.00;;;;;;;;;;4957147;28;20059;-60
2023/05/14 10:03:01;;;;;;;11.50;3.90;;;;;;;;;;4957139;28;20047;-62
2023/05/14 10:05:49;;;;;;;8.88;3.58;;;;;;;;;;4919882;29;20071;-62
2023/05/14 10:08:22;;;;;;;7.10;4.10;;;;;;;;;;4940476;28;20189;-62
2023/05/14 10:10:51;;;;;;;7.90;4.05;;;;;;;;;;4934524;28;20047;-61
2023/05/14 10:13:21;;;;;;;6.07;3.47;;;;;;;;;;4959135;28;20069;-62
2023/05/14 10:16:06;;;;;;;8.35;3.58;;;;;;;;;;4965486;28;20077;-59
2023/05/14 10:18:36;;;;;;;8.13;3.90;;;;;;;;;;4965159;28;20043;-61
2023/05/14 10:21:07;;;;;;;7.47;3.92;;;;;;;;;;4965876;28;20071;-61
2023/05/14 10:23:36;;;;;;;6.65;3.80;;;;;;;;;;4963749;28;20196;-62
2023/05/14 10:26:03;;;;;;;7.15;4.15;;;;;;;;;;4945145;28;20046;-62
2023/05/14 10:28:31;;;;;;;9.38;4.60;;;;;;;;;;4965410;28;20444;-62
2023/05/14 10:30:59;;;;;;;8.35;4.15;;;;;;;;;;4966007;28;20069;-60
2023/05/14 10:33:26;;;;;;;8.85;4.88;;;;;;;;;;4962531;28;20789;-60
2023/05/14 10:36:06;;;;;;;8.85;4.47;;;;;;;;;;4970747;28;20227;-61
2023/05/14 10:38:34;;;;;;;8.52;4.57;;;;;;;;;;5005975;28;20451;-61
2023/05/14 10:41:02;;;;;;;7.65;4.50;;;;;;;;;;5006576;28;20092;-62
2023/05/14 10:43:29;;;;;;;8.25;4.40;;;;;;;;;;5005416;28;20403;-60
2023/05/14 10:45:57;;;;;;;7.95;4.60;;;;;;;;;;5007271;28;20038;-62
2023/05/14 10:48:24;;;;;;;9.82;4.45;;;;;;;;;;5007025;28;20037;-63
2023/05/14 10:50:51;;;;;;;7.32;4.60;;;;;;;;;;5007599;28;20500;-62
2023/05/14 10:53:21;;;;;;;10.45;4.65;;;;;;;;;;5007157;28;20030;-63
2023/05/14 10:55:48;;;;;;;9.32;4.70;;;;;;;;;;5006084;28;20034;-63
2023/05/14 10:58:15;;;;;;;9.10;4.30;;;;;;;;;;5008902;28;20065;-62
2023/05/14 11:00:41;;;;;;;9.50;4.82;;;;;;;;;;5006191;28;20408;-61
2023/05/14 11:03:08;;;;;;;8.65;4.70;;;;;;;;;;5005940;28;20049;-62
2023/05/14 11:05:36;;;;;;;10.80;4.72;;;;;;;;;;5007436;28;20105;-63
2023/05/14 11:08:04;;;;;;;9.80;4.65;;;;;;;;;;5007297;28;20041;-63
2023/05/14 11:10:31;;;;;;;8.52;4.60;;;;;;;;;;5006294;28;20119;-62
2023/05/14 11:12:57;;;;;;;10.05;4.68;;;;;;;;;;5006724;28;20042;-64
2023/05/14 11:15:25;;;;;;;9.40;4.63;;;;;;;;;;5008210;28;20048;-62
2023/05/14 11:17:52;;;;;;;7.10;3.95;;;;;;;;;;5010501;28;20077;-62
2023/05/14 11:20:19;;;;;;;13.60;4.22;;;;;;;;;;4992062;28;20083;-62
2023/05/14 11:22:47;;;;;;;12.18;4.80;;;;;;;;;;5007855;28;20057;-62
2023/05/14 11:25:14;;;;;;;7.38;4.10;;;;;;;;;;5007372;28;20088;-63
2023/05/14 11:27:46;;;;;;;8.32;3.97;;;;;;;;;;5006565;28;20046;-62
2023/05/14 11:30:13;;;;;;;8.60;4.22;;;;;;;;;;4992553;28;20420;-61
2023/05/14 11:32:40;;;;;;;8.73;4.15;;;;;;;;;;5007286;28;20069;-61
2023/05/14 11:35:07;;;;;;;8.23;3.90;;;;;;;;;;5007285;28;20594;-61
2023/05/14 11:37:33;;;;;;;8.25;3.67;;;;;;;;;;5007479;28;20049;-62
2023/05/14 11:40:00;;;;;;;10.48;4.57;;;;;;;;;;4994311;28;20053;-62
2023/05/14 11:42:27;;;;;;;9.00;4.25;;;;;;;;;;4998377;28;20046;-60
2023/05/14 11:44:54;;;;;;;11.20;4.05;;;;;;;;;;4997708;28;20119;-60
2023/05/14 11:47:21;;;;;;;7.57;4.07;;;;;;;;;;5007489;28;20095;-60
2023/05/14 11:49:48;;;;;;;9.18;4.18;;;;;;;;;;5006701;28;20052;-63
2023/05/14 11:52:18;;;;;;;9.93;3.67;;;;;;;;;;5000055;28;20269;-60
2023/05/14 11:54:45;;;;;;;8.13;3.95;;;;;;;;;;5009356;28;20034;-61
2023/05/14 11:57:12;;;;;;;10.10;4.20;;;;;;;;;;5009109;28;20128;-62
2023/05/14 11:59:40;;;;;;;10.45;3.88;;;;;;;;;;5009182;28;20167;-61
2023/05/14 12:02:16;;;;;;;11.13;4.07;;;;;;;;;;5007349;28;20184;-63
2023/05/14 12:04:43;;;;;;;8.60;3.90;;;;;;;;;;5008090;28;20775;-61
2023/05/14 12:07:11;;;;;;;7.13;3.70;;;;;;;;;;5008590;28;20041;-62
2023/05/14 12:09:39;;;;;;;7.75;3.63;;;;;;;;;;5007368;28;20566;-62
2023/05/14 12:12:26;;;;;;;10.85;4.10;;;;;;;;;;4997931;28;20045;-63
2023/05/14 12:14:55;;;;;;;8.15;3.55;;;;;;;;;;4980074;28;20056;-66
2023/05/14 12:17:22;;;;;;;8.88;4.18;;;;;;;;;;4994831;28;20149;-64
2023/05/14 12:19:50;;;;;;;6.75;4.00;;;;;;;;;;4998059;28;20046;-64
2023/05/14 12:22:18;;;;;;;8.30;3.95;;;;;;;;;;4997658;28;20044;-61
2023/05/14 12:25:11;;;;;;;10.85;3.83;;;;;;;;;;4941870;28;20301;-62
2023/05/14 12:27:37;;;;;;;9.10;3.88;;;;;;;;;;4936995;28;20032;-61
2023/05/14 12:30:05;;;;;;;11.05;3.75;;;;;;;;;;4936149;28;20533;-63
2023/05/14 12:32:32;;;;;;;7.55;3.80;;;;;;;;;;4936491;28;20087;-63
2023/05/14 12:35:02;;;;;;;9.93;4.38;;;;;;;;;;4938776;28;20118;-64
2023/05/14 12:37:29;;;;;;;7.88;3.83;;;;;;;;;;4922748;28;20138;-62
2023/05/14 12:39:55;;;;;;;11.15;4.05;;;;;;;;;;4939020;28;20046;-63
2023/05/14 12:42:22;;;;;;;7.40;3.90;;;;;;;;;;4936479;28;20080;-62
2023/05/14 12:45:09;;;;;;;7.75;4.13;;;;;;;;;;4953031;28;20089;-63
2023/05/14 12:47:35;;;;;;;12.98;4.93;;;;;;;;;;4941251;28;20152;-65
2023/05/14 12:50:02;;;;;;;7.28;3.80;;;;;;;;;;4951154;28;20279;-59
2023/05/14 12:52:29;;;;;;;6.80;3.70;;;;;;;;;;4938050;28;20454;-64
2023/05/14 12:54:55;;;;;;;6.30;3.58;;;;;;;;;;4953114;28;20505;-64
2023/05/14 12:57:22;;;;;;;11.60;3.80;;;;;;;;;;4930130;28;20180;-64
2023/05/14 12:59:49;;;;;;;9.57;3.65;;;;;;;;;;4952676;28;20069;-61
2023/05/14 13:02:16;;;;;;;11.48;4.22;;;;;;;;;;4968247;28;20049;-67
2023/05/14 13:04:43;;;;;;;7.15;3.53;;;;;;;;;;4991673;28;20049;-66
2023/05/14 13:07:09;;;;;;;7.90;4.03;;;;;;;;;;4989371;28;20037;-63
2023/05/14 13:09:36;;;;;;;7.43;3.63;;;;;;;;;;4993124;28;20049;-63
2023/05/14 13:12:03;;;;;;;7.15;4.10;;;;;;;;;;4976191;28;20034;-63
2023/05/14 13:14:30;;;;;;;7.93;3.58;;;;;;;;;;4991984;28;20523;-64
2023/05/14 13:16:57;;;;;;;8.13;4.13;;;;;;;;;;4994798;28;20120;-63
2023/05/14 13:19:23;;;;;;;7.53;3.88;;;;;;;;;;4995421;28;21926;-63
2023/05/14 13:21:50;;;;;;;6.80;3.55;;;;;;;;;;4994626;28;21750;-64
2023/05/14 13:24:16;;;;;;;8.60;3.50;;;;;;;;;;5009723;28;20928;-62
2023/05/14 13:26:43;;;;;;;6.82;3.88;;;;;;;;;;4992757;28;20038;-64
2023/05/14 13:29:10;;;;;;;8.35;3.80;;;;;;;;;;5012903;28;20745;-65
2023/05/14 13:31:37;;;;;;;8.02;4.00;;;;;;;;;;5010356;28;20041;-63
2023/05/14 13:34:03;;;;;;;11.85;4.32;;;;;;;;;;5011355;28;20038;-61
2023/05/14 13:36:31;;;;;;;7.07;3.60;;;;;;;;;;5011944;28;20172;-63
2023/05/14 13:38:57;;;;;;;9.45;4.00;;;;;;;;;;5010276;28;20041;-62
2023/05/14 13:41:25;;;;;;;8.30;3.70;;;;;;;;;;5001377;28;20042;-62
2023/05/14 13:43:52;;;;;;;11.32;4.18;;;;;;;;;;5009423;28;20046;-63
2023/05/14 13:46:18;;;;;;;7.32;3.85;;;;;;;;;;5010284;28;20042;-62
2023/05/14 13:48:45;;;;;;;8.43;3.47;;;;;;;;;;5001918;28;20041;-65
2023/05/14 13:51:11;;;;;;;8.02;4.22;;;;;;;;;;4996948;28;20259;-62
2023/05/14 13:53:38;;;;;;;7.65;3.92;;;;;;;;;;5009596;28;20029;-65
2023/05/14 13:56:07;;;;;;;7.72;4.22;;;;;;;;;;5008935;28;20573;-65
2023/05/14 13:58:34;;;;;;;8.07;4.40;;;;;;;;;;5009164;28;20831;-65
2023/05/14 14:01:00;;;;;;;8.90;4.25;;;;;;;;;;4991045;28;20132;-62
2023/05/14 14:03:27;;;;;;;9.30;4.10;;;;;;;;;;5007484;28;20034;-63
2023/05/14 14:05:54;;;;;;;6.95;3.72;;;;;;;;;;5008481;28;20042;-64
2023/05/14 14:08:20;;;;;;;8.93;4.28;;;;;;;;;;5008645;28;20033;-61
2023/05/14 14:10:47;;;;;;;7.72;3.92;;;;;;;;;;5000437;28;20053;-64
2023/05/14 14:13:14;;;;;;;9.02;4.40;;;;;;;;;;4999945;28;20116;-66
2023/05/14 14:15:41;;;;;;;7.10;4.30;;;;;;;;;;4991430;28;20045;-63
2023/05/14 14:18:08;;;;;;;10.35;4.45;;;;;;;;;;5009971;28;20081;-67
2023/05/14 14:20:35;;;;;;;8.85;4.00;;;;;;;;;;4999817;28;20069;-64
2023/05/14 14:23:01;;;;;;;9.32;4.00;;;;;;;;;;5008253;28;20120;-64
2023/05/14 14:25:28;;;;;;;8.38;4.22;;;;;;;;;;5008998;28;20042;-63
2023/05/14 14:27:55;;;;;;;9.32;4.55;;;;;;;;;;5006028;28;20064;-63
2023/05/14 14:30:21;;;;;;;7.97;4.28;;;;;;;;;;5005066;28;21028;-65
2023/05/14 14:32:48;;;;;;;7.70;4.07;;;;;;;;;;5008892;28;20053;-62
2023/05/14 14:35:16;;;;;;;7.45;4.00;;;;;;;;;;5007422;28;20042;-64
2023/05/14 14:37:47;;;;;;;12.30;5.35;;;;;;;;;;5007259;28;20050;-63
2023/05/14 14:40:15;;;;;;;9.02;4.93;;;;;;;;;;5007572;28;20045;-65
2023/05/14 14:42:42;;;;;;;12.32;5.10;;;;;;;;;;5007352;28;20048;-64